Ana Sayfa
METAR-TAF:

METAR-TAF

Havaalanları :

Guadalupe Dağları Ulusal Parkı

Pine Springs, Teksas, Amerika Birleşik Devletleri

Enlem: 31-49-52N, Boylam: 104-48-32W, yükseklik: 1661 m

Güncel hava durumu gözlemi

Rapor saat 19:51 UTC de 30 dakika önce yapıldı.
Rüzgar doğu/kuzeydoğudan 12 kt ve 21 kt'a kadar ani rüzgarlar
Sıcaklık 24°C
Nem 31%
Basınç 1024 hPa
Görüş mesafesi: 14.5 km
Açık gökyüzü

METAR: KGDP 311951Z AUTO 07012G21KT 9SM CLR 24/06 A3024 RMK AO2 PK WND 08026/1856 SLP169 T02390056

Saat: 15:21 (20:21 UTC)


TAF: eksik

4.000'den fazla havaalanı için hava durumu gözlemleri ve tahminleri (METAR ve TAF raporları).

Kullanılabilir istasyonlar harita üzerinde sarı ve kırmızı noktalarla gösterilir.

İstasyonun adını görmek için fareyi noktanın üzerinde gezdirin.

Sonrasında hava gözlem ve tahminlerini görmek için tıklayın.

Haritayı değiştirmek için: yaklaştırmak için siyah artı işaretli yeşil düğmeye ve uzaklaştırmak için de eksi işaretli düğmeye hızla tıklayın; bitişik haritalar için yeşil okları kullanın.


METAR-TAF: